Destinations Larnaca International Airport

Larnaca International Airport (LCLK / LCA)

Flights to Larnaca International Airport

Flight number From ETE Dispatch
SPY-2322 EGFF Cardiff International Airport 04:50
SPY-604 EHGG Groningen Airport Eelde 04:00

Flights from Larnaca International Airport

Flight number To ETE Dispatch
SPY-2323 EGFF Cardiff International Airport 04:50
SPY-605 EHGG Groningen Airport Eelde
About

Larnaca International Airport facts

Larnaca International Airport is located in Larnaca at an elevation of 2.4 meters or 8 feet.

Currently, Speedy Airlines serves 4 flights to and from Larnaca International Airport.

Detailed airport info

Route map

Weather

Current weather

METAR

METAR

Metar data retrieved Sunday, 21 July 2024 at 19:25 UTC

LCLK 211900Z 19004KT CAVOK 30/27 Q1003 NOSIG
Wind Temperature
4 kt 30c